West Petersburg, Indiana
Current Conditions -  °F | °C
As of 8:55 PM on Friday 19 Dec 2014 (Local Time) from KDCY Reporting Station
Scattered Clouds Scattered Clouds  
Wind Chill: 31°   Ceiling: Unl
Heat Index: 31°   Visibility: 10mi
Dew Point: 25°   Wind: 3mph
Humidity: 79%   Direction: 110°ESE
Pressure: 30.26"   Gusts: NA
Location:  38.4723°N, 87.3105°W
Report Text: KDCY 200255Z AUTO 11003KT 10SM SCT030 M01/M04 A3026 RMK AO2 T10081041
Loading
Personal Weather Stations






























Interactive Weather Map New forecast layout! Learn more

10-Day Weather Forecast

Advertisements
Track Severe Weather on mobile